sensor_id;sensor_type;location;lat;lon;timestamp;P1;durP1;ratioP1;P2;durP2;ratioP2
29686;SDS011;16599;47.078;15.536;2023-02-01T00:01:07;6.15;;;2.08;;
29686;SDS011;16599;47.078;15.536;2023-02-01T00:03:35;3.28;;;1.50;;
29686;SDS011;16599;47.078;15.536;2023-02-01T00:06:02;4.15;;;1.60;;
29686;SDS011;16599;47.078;15.536;2023-02-01T00:08:31;3.75;;;1.48;;
29686;SDS011;16599;47.078;15.536;2023-02-01T00:10:59;3.75;;;1.40;;
29686;SDS011;16599;47.078;15.536;2023-02-01T00:13:36;2.80;;;1.35;;
29686;SDS011;16599;47.078;15.536;2023-02-01T00:16:09;3.78;;;1.38;;
29686;SDS011;16599;47.078;15.536;2023-02-01T00:18:38;7.55;;;1.40;;
29686;SDS011;16599;47.078;15.536;2023-02-01T00:21:05;11.27;;;4.82;;
29686;SDS011;16599;47.078;15.536;2023-02-01T00:23:39;4.80;;;2.05;;
29686;SDS011;16599;47.078;15.536;2023-02-01T00:26:07;6.80;;;3.38;;
29686;SDS011;16599;47.078;15.536;2023-02-01T00:28:39;6.22;;;3.80;;
29686;SDS011;16599;47.078;15.536;2023-02-01T00:31:06;4.60;;;3.10;;
29686;SDS011;16599;47.078;15.536;2023-02-01T00:33:36;5.35;;;2.50;;
29686;SDS011;16599;47.078;15.536;2023-02-01T00:36:04;4.07;;;2.00;;
29686;SDS011;16599;47.078;15.536;2023-02-01T00:38:33;2.97;;;2.15;;
29686;SDS011;16599;47.078;15.536;2023-02-01T00:41:04;3.60;;;2.00;;
29686;SDS011;16599;47.078;15.536;2023-02-01T00:43:42;5.40;;;2.20;;
29686;SDS011;16599;47.078;15.536;2023-02-01T00:46:09;6.50;;;2.00;;
29686;SDS011;16599;47.078;15.536;2023-02-01T00:48:37;9.00;;;2.13;;
29686;SDS011;16599;47.078;15.536;2023-02-01T00:51:06;5.53;;;2.05;;
29686;SDS011;16599;47.078;15.536;2023-02-01T00:53:37;3.75;;;1.85;;
29686;SDS011;16599;47.078;15.536;2023-02-01T00:56:04;4.50;;;1.80;;
29686;SDS011;16599;47.078;15.536;2023-02-01T00:58:34;4.60;;;1.77;;
29686;SDS011;16599;47.078;15.536;2023-02-01T01:01:03;4.78;;;1.73;;
29686;SDS011;16599;47.078;15.536;2023-02-01T01:03:33;3.63;;;1.98;;
29686;SDS011;16599;47.078;15.536;2023-02-01T01:06:02;6.50;;;1.75;;
29686;SDS011;16599;47.078;15.536;2023-02-01T01:08:31;4.35;;;1.92;;
29686;SDS011;16599;47.078;15.536;2023-02-01T01:10:58;3.38;;;1.60;;
29686;SDS011;16599;47.078;15.536;2023-02-01T01:13:32;3.55;;;1.52;;
29686;SDS011;16599;47.078;15.536;2023-02-01T01:16:00;2.30;;;1.50;;
29686;SDS011;16599;47.078;15.536;2023-02-01T01:18:29;4.20;;;1.95;;
29686;SDS011;16599;47.078;15.536;2023-02-01T01:20:57;4.40;;;1.73;;
29686;SDS011;16599;47.078;15.536;2023-02-01T01:23:24;4.55;;;1.73;;
29686;SDS011;16599;47.078;15.536;2023-02-01T01:25:51;4.90;;;2.10;;
29686;SDS011;16599;47.078;15.536;2023-02-01T01:28:18;3.80;;;2.20;;
29686;SDS011;16599;47.078;15.536;2023-02-01T01:30:45;3.95;;;3.35;;
29686;SDS011;16599;47.078;15.536;2023-02-01T01:33:12;3.80;;;1.80;;
29686;SDS011;16599;47.078;15.536;2023-02-01T01:35:38;4.65;;;1.95;;
29686;SDS011;16599;47.078;15.536;2023-02-01T01:38:05;3.05;;;1.80;;
29686;SDS011;16599;47.078;15.536;2023-02-01T01:40:32;8.18;;;2.28;;
29686;SDS011;16599;47.078;15.536;2023-02-01T01:42:59;5.03;;;1.48;;
29686;SDS011;16599;47.078;15.536;2023-02-01T01:45:33;3.20;;;1.42;;
29686;SDS011;16599;47.078;15.536;2023-02-01T01:48:05;2.95;;;1.50;;
29686;SDS011;16599;47.078;15.536;2023-02-01T01:50:51;5.85;;;1.55;;
29686;SDS011;16599;47.078;15.536;2023-02-01T01:53:24;2.03;;;1.40;;
29686;SDS011;16599;47.078;15.536;2023-02-01T01:55:54;4.07;;;2.00;;
29686;SDS011;16599;47.078;15.536;2023-02-01T01:58:26;4.13;;;1.42;;
29686;SDS011;16599;47.078;15.536;2023-02-01T02:00:55;4.80;;;1.52;;
29686;SDS011;16599;47.078;15.536;2023-02-01T02:03:23;6.05;;;1.48;;
29686;SDS011;16599;47.078;15.536;2023-02-01T02:05:55;3.63;;;1.80;;
29686;SDS011;16599;47.078;15.536;2023-02-01T02:08:25;3.28;;;1.42;;
29686;SDS011;16599;47.078;15.536;2023-02-01T02:10:53;4.05;;;1.77;;
29686;SDS011;16599;47.078;15.536;2023-02-01T02:13:39;5.25;;;1.50;;
29686;SDS011;16599;47.078;15.536;2023-02-01T02:24:20;2.80;;;1.60;;
29686;SDS011;16599;47.078;15.536;2023-02-01T02:38:38;2.78;;;1.73;;
29686;SDS011;16599;47.078;15.536;2023-02-01T02:44:26;4.28;;;1.88;;
29686;SDS011;16599;47.078;15.536;2023-02-01T02:47:31;5.43;;;1.73;;
29686;SDS011;16599;47.078;15.536;2023-02-01T02:50:21;6.93;;;1.90;;
29686;SDS011;16599;47.078;15.536;2023-02-01T02:53:21;13.13;;;1.90;;
29686;SDS011;16599;47.078;15.536;2023-02-01T02:56:17;4.20;;;1.95;;
29686;SDS011;16599;47.078;15.536;2023-02-01T02:59:06;4.55;;;1.88;;
29686;SDS011;16599;47.078;15.536;2023-02-01T03:01:54;5.80;;;2.47;;
29686;SDS011;16599;47.078;15.536;2023-02-01T03:04:43;9.20;;;4.28;;
29686;SDS011;16599;47.078;15.536;2023-02-01T03:10:22;10.90;;;2.53;;
29686;SDS011;16599;47.078;15.536;2023-02-01T03:12:50;4.35;;;2.08;;
29686;SDS011;16599;47.078;15.536;2023-02-01T03:18:13;3.08;;;1.75;;
29686;SDS011;16599;47.078;15.536;2023-02-01T03:20:44;12.63;;;3.78;;
29686;SDS011;16599;47.078;15.536;2023-02-01T03:23:16;8.27;;;2.30;;
29686;SDS011;16599;47.078;15.536;2023-02-01T03:25:47;3.17;;;1.63;;
29686;SDS011;16599;47.078;15.536;2023-02-01T03:28:18;4.85;;;1.67;;
29686;SDS011;16599;47.078;15.536;2023-02-01T03:30:49;3.67;;;1.30;;
29686;SDS011;16599;47.078;15.536;2023-02-01T03:33:17;2.25;;;1.20;;
29686;SDS011;16599;47.078;15.536;2023-02-01T03:39:14;3.85;;;1.20;;
29686;SDS011;16599;47.078;15.536;2023-02-01T03:44:08;5.50;;;1.00;;
29686;SDS011;16599;47.078;15.536;2023-02-01T03:46:48;3.17;;;0.80;;
29686;SDS011;16599;47.078;15.536;2023-02-01T03:49:29;0.80;;;0.68;;
29686;SDS011;16599;47.078;15.536;2023-02-01T03:52:02;0.77;;;0.73;;
29686;SDS011;16599;47.078;15.536;2023-02-01T03:54:31;1.55;;;0.85;;
29686;SDS011;16599;47.078;15.536;2023-02-01T03:57:01;1.30;;;0.68;;
29686;SDS011;16599;47.078;15.536;2023-02-01T03:59:33;1.05;;;0.85;;
29686;SDS011;16599;47.078;15.536;2023-02-01T04:01:59;2.40;;;0.60;;
29686;SDS011;16599;47.078;15.536;2023-02-01T04:04:29;1.73;;;0.77;;
29686;SDS011;16599;47.078;15.536;2023-02-01T04:07:00;1.67;;;1.05;;
29686;SDS011;16599;47.078;15.536;2023-02-01T04:09:27;1.30;;;1.10;;
29686;SDS011;16599;47.078;15.536;2023-02-01T04:11:54;0.98;;;0.80;;
29686;SDS011;16599;47.078;15.536;2023-02-01T04:14:23;3.92;;;2.30;;
29686;SDS011;16599;47.078;15.536;2023-02-01T04:16:50;2.28;;;1.10;;
29686;SDS011;16599;47.078;15.536;2023-02-01T04:19:17;1.73;;;1.13;;
29686;SDS011;16599;47.078;15.536;2023-02-01T04:21:44;1.17;;;0.95;;
29686;SDS011;16599;47.078;15.536;2023-02-01T04:24:14;2.20;;;0.80;;
29686;SDS011;16599;47.078;15.536;2023-02-01T04:26:40;2.92;;;0.70;;
29686;SDS011;16599;47.078;15.536;2023-02-01T04:29:12;3.15;;;1.42;;
29686;SDS011;16599;47.078;15.536;2023-02-01T04:31:39;1.35;;;1.00;;
29686;SDS011;16599;47.078;15.536;2023-02-01T04:34:06;2.45;;;1.17;;
29686;SDS011;16599;47.078;15.536;2023-02-01T04:36:33;1.25;;;0.90;;
29686;SDS011;16599;47.078;15.536;2023-02-01T04:39:00;1.90;;;1.73;;
29686;SDS011;16599;47.078;15.536;2023-02-01T04:41:26;1.42;;;0.90;;
29686;SDS011;16599;47.078;15.536;2023-02-01T04:43:53;2.67;;;1.10;;
29686;SDS011;16599;47.078;15.536;2023-02-01T04:46:20;5.70;;;1.48;;
29686;SDS011;16599;47.078;15.536;2023-02-01T04:48:47;1.70;;;1.08;;
29686;SDS011;16599;47.078;15.536;2023-02-01T04:51:14;1.23;;;0.93;;
29686;SDS011;16599;47.078;15.536;2023-02-01T04:53:41;2.83;;;1.55;;
29686;SDS011;16599;47.078;15.536;2023-02-01T04:56:08;3.10;;;1.40;;
29686;SDS011;16599;47.078;15.536;2023-02-01T04:58:34;1.60;;;1.30;;
29686;SDS011;16599;47.078;15.536;2023-02-01T05:01:02;2.15;;;1.63;;
29686;SDS011;16599;47.078;15.536;2023-02-01T05:03:35;3.33;;;1.75;;
29686;SDS011;16599;47.078;15.536;2023-02-01T05:06:02;3.25;;;2.30;;
29686;SDS011;16599;47.078;15.536;2023-02-01T05:08:35;2.80;;;1.50;;
29686;SDS011;16599;47.078;15.536;2023-02-01T05:11:04;3.78;;;1.77;;
29686;SDS011;16599;47.078;15.536;2023-02-01T05:13:31;4.30;;;2.05;;
29686;SDS011;16599;47.078;15.536;2023-02-01T05:16:18;5.65;;;2.55;;
29686;SDS011;16599;47.078;15.536;2023-02-01T05:18:45;4.72;;;2.28;;
29686;SDS011;16599;47.078;15.536;2023-02-01T05:21:14;6.32;;;2.30;;
29686;SDS011;16599;47.078;15.536;2023-02-01T05:23:41;3.22;;;1.98;;
29686;SDS011;16599;47.078;15.536;2023-02-01T05:26:28;5.00;;;1.80;;
29686;SDS011;16599;47.078;15.536;2023-02-01T05:28:55;5.25;;;2.13;;
29686;SDS011;16599;47.078;15.536;2023-02-01T05:31:23;3.33;;;1.30;;
29686;SDS011;16599;47.078;15.536;2023-02-01T05:33:51;2.63;;;1.58;;
29686;SDS011;16599;47.078;15.536;2023-02-01T05:36:19;5.25;;;1.92;;
29686;SDS011;16599;47.078;15.536;2023-02-01T05:38:46;2.97;;;1.55;;
29686;SDS011;16599;47.078;15.536;2023-02-01T05:41:14;3.33;;;1.58;;
29686;SDS011;16599;47.078;15.536;2023-02-01T05:43:41;2.70;;;1.35;;
29686;SDS011;16599;47.078;15.536;2023-02-01T05:46:11;2.60;;;1.65;;
29686;SDS011;16599;47.078;15.536;2023-02-01T05:48:39;3.60;;;1.65;;
29686;SDS011;16599;47.078;15.536;2023-02-01T05:51:07;2.58;;;1.55;;
29686;SDS011;16599;47.078;15.536;2023-02-01T05:53:48;3.60;;;1.67;;
29686;SDS011;16599;47.078;15.536;2023-02-01T05:56:14;6.28;;;2.35;;
29686;SDS011;16599;47.078;15.536;2023-02-01T05:58:43;5.55;;;2.10;;
29686;SDS011;16599;47.078;15.536;2023-02-01T06:01:10;2.78;;;1.65;;
29686;SDS011;16599;47.078;15.536;2023-02-01T06:03:37;5.45;;;1.63;;
29686;SDS011;16599;47.078;15.536;2023-02-01T06:06:13;4.40;;;1.80;;
29686;SDS011;16599;47.078;15.536;2023-02-01T06:08:39;4.97;;;2.45;;
29686;SDS011;16599;47.078;15.536;2023-02-01T06:11:06;2.92;;;1.48;;
29686;SDS011;16599;47.078;15.536;2023-02-01T06:13:38;4.50;;;1.92;;
29686;SDS011;16599;47.078;15.536;2023-02-01T06:16:05;7.50;;;2.70;;
29686;SDS011;16599;47.078;15.536;2023-02-01T06:18:34;7.22;;;1.80;;
29686;SDS011;16599;47.078;15.536;2023-02-01T06:21:02;1.63;;;1.02;;
29686;SDS011;16599;47.078;15.536;2023-02-01T06:23:30;2.40;;;1.63;;
29686;SDS011;16599;47.078;15.536;2023-02-01T06:26:03;2.55;;;1.50;;
29686;SDS011;16599;47.078;15.536;2023-02-01T06:28:31;4.35;;;2.22;;
29686;SDS011;16599;47.078;15.536;2023-02-01T06:31:02;2.83;;;1.83;;
29686;SDS011;16599;47.078;15.536;2023-02-01T06:33:33;4.07;;;1.85;;
29686;SDS011;16599;47.078;15.536;2023-02-01T06:36:01;7.68;;;2.22;;
29686;SDS011;16599;47.078;15.536;2023-02-01T06:38:33;3.67;;;1.90;;
29686;SDS011;16599;47.078;15.536;2023-02-01T06:41:01;4.35;;;2.60;;
29686;SDS011;16599;47.078;15.536;2023-02-01T06:43:32;4.22;;;2.30;;
29686;SDS011;16599;47.078;15.536;2023-02-01T06:46:00;3.75;;;2.13;;
29686;SDS011;16599;47.078;15.536;2023-02-01T06:48:28;4.60;;;2.90;;
29686;SDS011;16599;47.078;15.536;2023-02-01T06:50:56;11.10;;;4.47;;
29686;SDS011;16599;47.078;15.536;2023-02-01T06:53:23;4.78;;;2.67;;
29686;SDS011;16599;47.078;15.536;2023-02-01T06:56:00;5.78;;;2.30;;
29686;SDS011;16599;47.078;15.536;2023-02-01T06:58:29;7.25;;;2.65;;
29686;SDS011;16599;47.078;15.536;2023-02-01T07:01:06;7.00;;;3.20;;
29686;SDS011;16599;47.078;15.536;2023-02-01T07:03:34;6.15;;;3.10;;
29686;SDS011;16599;47.078;15.536;2023-02-01T07:06:02;5.32;;;3.03;;
29686;SDS011;16599;47.078;15.536;2023-02-01T07:08:30;4.28;;;2.20;;
29686;SDS011;16599;47.078;15.536;2023-02-01T07:11:11;12.90;;;5.95;;
29686;SDS011;16599;47.078;15.536;2023-02-01T07:13:39;4.18;;;2.78;;
29686;SDS011;16599;47.078;15.536;2023-02-01T07:16:07;4.00;;;2.50;;
29686;SDS011;16599;47.078;15.536;2023-02-01T07:18:36;4.32;;;2.20;;
29686;SDS011;16599;47.078;15.536;2023-02-01T07:21:06;3.72;;;2.47;;
29686;SDS011;16599;47.078;15.536;2023-02-01T07:23:33;8.90;;;2.95;;
29686;SDS011;16599;47.078;15.536;2023-02-01T07:26:01;4.25;;;2.20;;
29686;SDS011;16599;47.078;15.536;2023-02-01T07:28:34;3.17;;;2.03;;
29686;SDS011;16599;47.078;15.536;2023-02-01T07:31:05;5.25;;;3.08;;
29686;SDS011;16599;47.078;15.536;2023-02-01T07:33:37;7.10;;;2.95;;
29686;SDS011;16599;47.078;15.536;2023-02-01T07:36:04;6.43;;;2.40;;
29686;SDS011;16599;47.078;15.536;2023-02-01T07:38:33;6.13;;;3.38;;
29686;SDS011;16599;47.078;15.536;2023-02-01T07:41:03;6.97;;;3.20;;
29686;SDS011;16599;47.078;15.536;2023-02-01T07:43:31;5.47;;;2.75;;
29686;SDS011;16599;47.078;15.536;2023-02-01T07:46:02;4.72;;;2.47;;
29686;SDS011;16599;47.078;15.536;2023-02-01T07:48:30;6.65;;;2.88;;
29686;SDS011;16599;47.078;15.536;2023-02-01T07:51:02;7.78;;;3.35;;
29686;SDS011;16599;47.078;15.536;2023-02-01T07:53:34;4.75;;;2.90;;
29686;SDS011;16599;47.078;15.536;2023-02-01T07:56:03;9.85;;;2.35;;
29686;SDS011;16599;47.078;15.536;2023-02-01T07:58:35;4.47;;;2.97;;
29686;SDS011;16599;47.078;15.536;2023-02-01T08:01:02;6.50;;;2.30;;
29686;SDS011;16599;47.078;15.536;2023-02-01T08:03:48;5.78;;;2.30;;
29686;SDS011;16599;47.078;15.536;2023-02-01T08:06:16;4.32;;;2.40;;
29686;SDS011;16599;47.078;15.536;2023-02-01T08:08:45;5.95;;;2.85;;
29686;SDS011;16599;47.078;15.536;2023-02-01T08:11:13;4.40;;;3.30;;
29686;SDS011;16599;47.078;15.536;2023-02-01T08:13:41;7.20;;;3.20;;
29686;SDS011;16599;47.078;15.536;2023-02-01T08:16:08;9.52;;;4.38;;
29686;SDS011;16599;47.078;15.536;2023-02-01T08:18:37;6.68;;;4.20;;
29686;SDS011;16599;47.078;15.536;2023-02-01T08:21:10;4.25;;;2.55;;
29686;SDS011;16599;47.078;15.536;2023-02-01T08:23:47;5.10;;;2.28;;
29686;SDS011;16599;47.078;15.536;2023-02-01T08:26:18;3.92;;;2.22;;
29686;SDS011;16599;47.078;15.536;2023-02-01T08:28:51;3.65;;;2.38;;
29686;SDS011;16599;47.078;15.536;2023-02-01T08:31:23;5.10;;;3.00;;
29686;SDS011;16599;47.078;15.536;2023-02-01T08:33:52;41.40;;;5.38;;
29686;SDS011;16599;47.078;15.536;2023-02-01T08:36:20;11.45;;;4.28;;
29686;SDS011;16599;47.078;15.536;2023-02-01T08:38:51;12.52;;;3.60;;
29686;SDS011;16599;47.078;15.536;2023-02-01T08:41:20;12.63;;;3.72;;
29686;SDS011;16599;47.078;15.536;2023-02-01T08:44:02;12.48;;;3.47;;
29686;SDS011;16599;47.078;15.536;2023-02-01T08:46:31;10.85;;;3.47;;
29686;SDS011;16599;47.078;15.536;2023-02-01T08:48:58;7.78;;;3.25;;
29686;SDS011;16599;47.078;15.536;2023-02-01T08:51:25;19.05;;;5.00;;
29686;SDS011;16599;47.078;15.536;2023-02-01T08:53:52;12.93;;;4.05;;
29686;SDS011;16599;47.078;15.536;2023-02-01T08:56:22;9.05;;;3.10;;
29686;SDS011;16599;47.078;15.536;2023-02-01T08:58:51;13.85;;;4.10;;
29686;SDS011;16599;47.078;15.536;2023-02-01T09:01:18;10.05;;;3.22;;
29686;SDS011;16599;47.078;15.536;2023-02-01T09:03:45;8.65;;;3.42;;
29686;SDS011;16599;47.078;15.536;2023-02-01T09:06:12;8.90;;;3.75;;
29686;SDS011;16599;47.078;15.536;2023-02-01T09:08:40;17.65;;;7.72;;
29686;SDS011;16599;47.078;15.536;2023-02-01T09:11:10;24.50;;;10.70;;
29686;SDS011;16599;47.078;15.536;2023-02-01T09:13:38;39.13;;;15.60;;
29686;SDS011;16599;47.078;15.536;2023-02-01T09:16:05;17.88;;;7.55;;
29686;SDS011;16599;47.078;15.536;2023-02-01T09:18:33;12.35;;;5.85;;
29686;SDS011;16599;47.078;15.536;2023-02-01T09:21:03;13.10;;;5.15;;
29686;SDS011;16599;47.078;15.536;2023-02-01T09:23:34;14.45;;;4.63;;
29686;SDS011;16599;47.078;15.536;2023-02-01T09:26:01;33.75;;;14.88;;
29686;SDS011;16599;47.078;15.536;2023-02-01T09:28:29;10.20;;;4.50;;
29686;SDS011;16599;47.078;15.536;2023-02-01T09:30:57;14.15;;;3.88;;
29686;SDS011;16599;47.078;15.536;2023-02-01T09:33:25;11.98;;;3.20;;
29686;SDS011;16599;47.078;15.536;2023-02-01T09:36:00;4.07;;;2.25;;
29686;SDS011;16599;47.078;15.536;2023-02-01T09:38:29;5.03;;;2.53;;
29686;SDS011;16599;47.078;15.536;2023-02-01T09:40:58;2.00;;;1.20;;
29686;SDS011;16599;47.078;15.536;2023-02-01T09:46:21;6.95;;;4.50;;
29686;SDS011;16599;47.078;15.536;2023-02-01T09:48:53;9.55;;;4.43;;
29686;SDS011;16599;47.078;15.536;2023-02-01T09:51:44;14.18;;;4.88;;
29686;SDS011;16599;47.078;15.536;2023-02-01T09:57:22;10.50;;;4.30;;
29686;SDS011;16599;47.078;15.536;2023-02-01T09:59:54;23.70;;;5.75;;
29686;SDS011;16599;47.078;15.536;2023-02-01T10:02:29;18.48;;;4.90;;
29686;SDS011;16599;47.078;15.536;2023-02-01T10:04:58;15.20;;;4.38;;
29686;SDS011;16599;47.078;15.536;2023-02-01T10:13:14;13.02;;;6.30;;
29686;SDS011;16599;47.078;15.536;2023-02-01T10:15:59;18.83;;;5.50;;
29686;SDS011;16599;47.078;15.536;2023-02-01T10:21:48;10.90;;;4.72;;
29686;SDS011;16599;47.078;15.536;2023-02-01T10:24:23;16.95;;;4.55;;
29686;SDS011;16599;47.078;15.536;2023-02-01T10:27:17;15.38;;;4.28;;
29686;SDS011;16599;47.078;15.536;2023-02-01T10:29:51;7.80;;;3.65;;
29686;SDS011;16599;47.078;15.536;2023-02-01T10:32:39;10.43;;;4.60;;
29686;SDS011;16599;47.078;15.536;2023-02-01T10:37:41;15.73;;;4.45;;
29686;SDS011;16599;47.078;15.536;2023-02-01T10:42:52;8.75;;;3.17;;
29686;SDS011;16599;47.078;15.536;2023-02-01T10:45:23;8.43;;;3.38;;
29686;SDS011;16599;47.078;15.536;2023-02-01T10:47:53;7.25;;;2.65;;
29686;SDS011;16599;47.078;15.536;2023-02-01T10:50:44;4.63;;;2.33;;
29686;SDS011;16599;47.078;15.536;2023-02-01T10:53:12;5.18;;;1.90;;
29686;SDS011;16599;47.078;15.536;2023-02-01T10:55:48;3.30;;;1.75;;
29686;SDS011;16599;47.078;15.536;2023-02-01T11:00:56;5.93;;;1.65;;
29686;SDS011;16599;47.078;15.536;2023-02-01T11:03:30;3.25;;;1.80;;
29686;SDS011;16599;47.078;15.536;2023-02-01T11:05:58;3.38;;;1.80;;
29686;SDS011;16599;47.078;15.536;2023-02-01T11:08:26;3.95;;;1.50;;
29686;SDS011;16599;47.078;15.536;2023-02-01T11:10:58;6.35;;;2.90;;
29686;SDS011;16599;47.078;15.536;2023-02-01T11:13:32;7.03;;;3.40;;
29686;SDS011;16599;47.078;15.536;2023-02-01T11:16:05;2.05;;;1.10;;
29686;SDS011;16599;47.078;15.536;2023-02-01T11:21:10;1.55;;;1.08;;
29686;SDS011;16599;47.078;15.536;2023-02-01T11:23:42;1.33;;;1.05;;
29686;SDS011;16599;47.078;15.536;2023-02-01T11:28:58;3.53;;;0.95;;
29686;SDS011;16599;47.078;15.536;2023-02-01T11:31:30;3.30;;;1.15;;
29686;SDS011;16599;47.078;15.536;2023-02-01T11:34:00;2.10;;;1.02;;
29686;SDS011;16599;47.078;15.536;2023-02-01T11:36:40;1.27;;;0.90;;
29686;SDS011;16599;47.078;15.536;2023-02-01T11:39:24;3.38;;;1.30;;
29686;SDS011;16599;47.078;15.536;2023-02-01T11:42:11;2.50;;;1.30;;
29686;SDS011;16599;47.078;15.536;2023-02-01T11:44:48;3.83;;;1.60;;
29686;SDS011;16599;47.078;15.536;2023-02-01T11:47:19;3.03;;;1.40;;
29686;SDS011;16599;47.078;15.536;2023-02-01T11:49:49;15.80;;;1.55;;
29686;SDS011;16599;47.078;15.536;2023-02-01T11:58:06;8.60;;;2.25;;
29686;SDS011;16599;47.078;15.536;2023-02-01T12:03:45;8.73;;;2.03;;
29686;SDS011;16599;47.078;15.536;2023-02-01T12:20:32;8.43;;;1.40;;
29686;SDS011;16599;47.078;15.536;2023-02-01T12:23:15;7.57;;;1.40;;
29686;SDS011;16599;47.078;15.536;2023-02-01T12:31:33;2.58;;;0.77;;
29686;SDS011;16599;47.078;15.536;2023-02-01T12:43:05;4.43;;;0.60;;
29686;SDS011;16599;47.078;15.536;2023-02-01T12:51:17;0.43;;;0.43;;
29686;SDS011;16599;47.078;15.536;2023-02-01T12:54:01;0.20;;;0.20;;
29686;SDS011;16599;47.078;15.536;2023-02-01T12:56:43;0.63;;;0.40;;
29686;SDS011;16599;47.078;15.536;2023-02-01T13:02:18;0.28;;;0.22;;
29686;SDS011;16599;47.078;15.536;2023-02-01T13:07:26;1.00;;;0.40;;
29686;SDS011;16599;47.078;15.536;2023-02-01T13:15:56;1.38;;;0.50;;
29686;SDS011;16599;47.078;15.536;2023-02-01T13:18:37;1.00;;;0.20;;
29686;SDS011;16599;47.078;15.536;2023-02-01T13:21:10;7.40;;;0.57;;
29686;SDS011;16599;47.078;15.536;2023-02-01T13:23:48;1.52;;;0.40;;
29686;SDS011;16599;47.078;15.536;2023-02-01T13:26:16;0.52;;;0.52;;
29686;SDS011;16599;47.078;15.536;2023-02-01T13:28:51;0.70;;;0.40;;
29686;SDS011;16599;47.078;15.536;2023-02-01T13:32:20;0.50;;;0.40;;
29686;SDS011;16599;47.078;15.536;2023-02-01T13:43:06;0.30;;;0.30;;
29686;SDS011;16599;47.078;15.536;2023-02-01T13:45:37;0.55;;;0.40;;
29686;SDS011;16599;47.078;15.536;2023-02-01T13:49:00;0.30;;;0.30;;
29686;SDS011;16599;47.078;15.536;2023-02-01T13:51:37;5.70;;;0.90;;
29686;SDS011;16599;47.078;15.536;2023-02-01T13:54:24;0.30;;;0.30;;
29686;SDS011;16599;47.078;15.536;2023-02-01T13:56:58;0.90;;;0.90;;
29686;SDS011;16599;47.078;15.536;2023-02-01T14:00:00;0.40;;;0.40;;
29686;SDS011;16599;47.078;15.536;2023-02-01T14:21:25;2.33;;;0.50;;
29686;SDS011;16599;47.078;15.536;2023-02-01T14:23:58;0.50;;;0.28;;
29686;SDS011;16599;47.078;15.536;2023-02-01T14:32:03;1.10;;;0.47;;
29686;SDS011;16599;47.078;15.536;2023-02-01T14:45:52;1.33;;;0.38;;
29686;SDS011;16599;47.078;15.536;2023-02-01T14:50:34;0.40;;;0.35;;
29686;SDS011;16599;47.078;15.536;2023-02-01T14:55:43;0.40;;;0.40;;
29686;SDS011;16599;47.078;15.536;2023-02-01T15:01:23;2.17;;;0.55;;
29686;SDS011;16599;47.078;15.536;2023-02-01T15:03:52;1.77;;;0.70;;
29686;SDS011;16599;47.078;15.536;2023-02-01T15:14:30;1.70;;;1.00;;
29686;SDS011;16599;47.078;15.536;2023-02-01T15:19:53;0.77;;;0.57;;
29686;SDS011;16599;47.078;15.536;2023-02-01T15:24:59;3.30;;;0.57;;
29686;SDS011;16599;47.078;15.536;2023-02-01T15:27:27;1.30;;;0.68;;
29686;SDS011;16599;47.078;15.536;2023-02-01T15:30:04;2.83;;;0.80;;
29686;SDS011;16599;47.078;15.536;2023-02-01T15:32:34;0.50;;;0.40;;
29686;SDS011;16599;47.078;15.536;2023-02-01T15:35:05;2.90;;;0.70;;
29686;SDS011;16599;47.078;15.536;2023-02-01T15:37:52;0.70;;;0.40;;
29686;SDS011;16599;47.078;15.536;2023-02-01T15:40:51;1.35;;;0.55;;
29686;SDS011;16599;47.078;15.536;2023-02-01T15:43:29;2.28;;;0.70;;
29686;SDS011;16599;47.078;15.536;2023-02-01T15:46:02;1.27;;;0.70;;
29686;SDS011;16599;47.078;15.536;2023-02-01T15:48:35;2.58;;;0.93;;
29686;SDS011;16599;47.078;15.536;2023-02-01T15:51:05;2.25;;;0.82;;
29686;SDS011;16599;47.078;15.536;2023-02-01T15:56:06;3.25;;;1.30;;
29686;SDS011;16599;47.078;15.536;2023-02-01T15:58:35;1.05;;;0.70;;
29686;SDS011;16599;47.078;15.536;2023-02-01T16:01:03;7.45;;;6.75;;
29686;SDS011;16599;47.078;15.536;2023-02-01T16:03:37;1.65;;;0.65;;
29686;SDS011;16599;47.078;15.536;2023-02-01T16:06:33;1.02;;;0.60;;
29686;SDS011;16599;47.078;15.536;2023-02-01T16:09:03;0.88;;;0.65;;
29686;SDS011;16599;47.078;15.536;2023-02-01T16:11:41;1.13;;;0.60;;
29686;SDS011;16599;47.078;15.536;2023-02-01T16:14:18;3.57;;;1.60;;
29686;SDS011;16599;47.078;15.536;2023-02-01T16:16:46;1.58;;;0.75;;
29686;SDS011;16599;47.078;15.536;2023-02-01T16:19:13;4.22;;;0.80;;
29686;SDS011;16599;47.078;15.536;2023-02-01T16:21:42;1.27;;;0.90;;
29686;SDS011;16599;47.078;15.536;2023-02-01T16:24:09;1.33;;;0.80;;
29686;SDS011;16599;47.078;15.536;2023-02-01T16:26:36;0.93;;;0.75;;
29686;SDS011;16599;47.078;15.536;2023-02-01T16:29:04;2.10;;;0.60;;
29686;SDS011;16599;47.078;15.536;2023-02-01T16:31:35;1.25;;;0.90;;
29686;SDS011;16599;47.078;15.536;2023-02-01T16:34:10;1.52;;;0.60;;
29686;SDS011;16599;47.078;15.536;2023-02-01T16:36:43;2.08;;;0.70;;
29686;SDS011;16599;47.078;15.536;2023-02-01T16:39:18;0.98;;;0.60;;
29686;SDS011;16599;47.078;15.536;2023-02-01T16:41:46;0.82;;;0.50;;
29686;SDS011;16599;47.078;15.536;2023-02-01T16:46:53;1.73;;;0.70;;
29686;SDS011;16599;47.078;15.536;2023-02-01T16:49:29;1.98;;;0.60;;
29686;SDS011;16599;47.078;15.536;2023-02-01T16:51:57;2.53;;;0.70;;
29686;SDS011;16599;47.078;15.536;2023-02-01T16:54:27;3.03;;;0.60;;
29686;SDS011;16599;47.078;15.536;2023-02-01T16:56:54;2.03;;;0.90;;
29686;SDS011;16599;47.078;15.536;2023-02-01T16:59:21;3.65;;;0.82;;
29686;SDS011;16599;47.078;15.536;2023-02-01T17:01:48;2.15;;;1.00;;
29686;SDS011;16599;47.078;15.536;2023-02-01T17:04:15;3.55;;;1.10;;
29686;SDS011;16599;47.078;15.536;2023-02-01T17:06:43;2.55;;;0.80;;
29686;SDS011;16599;47.078;15.536;2023-02-01T17:09:13;2.53;;;0.93;;
29686;SDS011;16599;47.078;15.536;2023-02-01T17:11:45;4.22;;;1.35;;
29686;SDS011;16599;47.078;15.536;2023-02-01T17:14:19;3.53;;;0.98;;
29686;SDS011;16599;47.078;15.536;2023-02-01T17:16:48;15.18;;;9.13;;
29686;SDS011;16599;47.078;15.536;2023-02-01T17:19:17;6.63;;;3.53;;
29686;SDS011;16599;47.078;15.536;2023-02-01T17:21:52;2.25;;;1.10;;
29686;SDS011;16599;47.078;15.536;2023-02-01T17:24:23;1.17;;;0.80;;
29686;SDS011;16599;47.078;15.536;2023-02-01T17:27:13;2.15;;;0.80;;
29686;SDS011;16599;47.078;15.536;2023-02-01T17:29:40;2.47;;;1.00;;
29686;SDS011;16599;47.078;15.536;2023-02-01T17:32:19;0.82;;;0.32;;
29686;SDS011;16599;47.078;15.536;2023-02-01T17:34:49;4.05;;;0.85;;
29686;SDS011;16599;47.078;15.536;2023-02-01T17:37:22;1.95;;;0.82;;
29686;SDS011;16599;47.078;15.536;2023-02-01T17:39:52;2.35;;;0.75;;
29686;SDS011;16599;47.078;15.536;2023-02-01T17:42:22;6.03;;;0.90;;
29686;SDS011;16599;47.078;15.536;2023-02-01T17:44:51;1.33;;;0.90;;
29686;SDS011;16599;47.078;15.536;2023-02-01T17:47:25;2.05;;;1.02;;
29686;SDS011;16599;47.078;15.536;2023-02-01T17:49:51;2.88;;;1.00;;
29686;SDS011;16599;47.078;15.536;2023-02-01T17:52:22;4.78;;;1.27;;
29686;SDS011;16599;47.078;15.536;2023-02-01T17:54:52;4.10;;;0.90;;
29686;SDS011;16599;47.078;15.536;2023-02-01T17:57:19;6.70;;;1.23;;
29686;SDS011;16599;47.078;15.536;2023-02-01T17:59:49;4.35;;;0.90;;
29686;SDS011;16599;47.078;15.536;2023-02-01T18:02:19;2.35;;;1.35;;
29686;SDS011;16599;47.078;15.536;2023-02-01T18:04:50;3.42;;;1.25;;
29686;SDS011;16599;47.078;15.536;2023-02-01T18:07:17;3.65;;;1.40;;
29686;SDS011;16599;47.078;15.536;2023-02-01T18:09:44;3.15;;;1.70;;